Sharptown, New Jersey
Current Conditions -  °F | °C
As of 3:51 PM on Saturday 20 Dec 2014 (Local Time) from KILG Reporting Station
Clear Clear  
Wind Chill:   Ceiling: Unl
Heat Index:   Visibility: 10mi
Dew Point: -6°   Wind: 0mph
Humidity: 55%   Direction: NA
Pressure: 30.27"   Gusts: NA
Location:  39.6335°N, 75.3233°W
Report Text: KILG 202051Z 00000KT 10SM CLR 02/M06 A3027 RMK AO2 SLP252 T00221061 55003
Loading
Personal Weather Stations






























Interactive Weather Map New forecast layout! Learn more

10-Day Weather Forecast

Advertisements
Track Severe Weather on mobile